Hovedside
METAR-TAF:

METAR-TAF

Lufthavner :

Kramfors, Sverige

Kramfors lufthavn

breddegrad: 63-03N, lengdegrad: 017-46E, høyde over havet: 10 m

Gjeldene værobservasjon

Denne rapporten ble laget for 35 minutter siden, klokken 18:20 UTC
Vind 5 kt fra Øst-sørøst
Temperatur 11°C
Luftfuktighet 87%
Trykk 1029 hPa
Sikt 10 km eller mer
Brutte skyer i en høyde av 1800 ft
Overskyet i en høyde av 2100 ft

METAR: ESNK 221820Z 11005KT 9999 BKN018 OVC021 11/09 Q1029

Tid: 20:55 (18:55 UTC)

Varsel

Denne rapporten ble laget for 1 time og 25 minutter siden, klokken 17:30 UTC
Varsel gyldig fra 22. klokken 18 UTC til 22. klokken 20 UTC
Vind 8 kt fra Sørøst
Sikt 10 km eller mer
Brutte skyer i en høyde av 2500 ft
Sannsynlighet 40%
fra 22. klokken 18 UTC til 22. klokken 20 UTC
Brutte skyer i en høyde av 1400 ft

TAF: ESNK 221730Z 2218/2220 13008KT 9999 BKN025 PROB40 2218/2220 BKN014

Værobservasjoner og værvarsel for over 4000 flyplasser (METAR- og TAF-rapporter).

Tilgjengelige stasjoner er representert av de røde og gule prikkene på kartet.

Hold musepekeren over prikken for å se navnet på stasjonen.

Klikk så for å se værobservasjoner og -varsler.

For å forandre kartet kan du klikke på den grønne knappen med svart kryss for å zoome inn, på den grønne knappen med strek for å zoome ut, eller på de grønne pilene for å se tilstøtende kart.


METAR-TAF: